sensor_id;sensor_type;location;lat;lon;timestamp;pressure;altitude;pressure_sealevel;temperature;humidity
78170;BME280;67412;49.892;14.490;2023-05-10T00:02:22;96810.75;;;8.78;66.80
78170;BME280;67412;49.892;14.490;2023-05-10T00:04:47;96808.13;;;8.83;66.40
78170;BME280;67412;49.892;14.490;2023-05-10T00:07:13;96802.34;;;8.71;67.15
78170;BME280;67412;49.892;14.490;2023-05-10T00:09:38;96798.06;;;8.70;67.37
78170;BME280;67412;49.892;14.490;2023-05-10T00:12:05;96799.78;;;8.70;67.32
78170;BME280;67412;49.892;14.490;2023-05-10T00:14:30;96794.59;;;8.74;66.67
78170;BME280;67412;49.892;14.490;2023-05-10T00:16:56;96797.09;;;8.81;66.66
78170;BME280;67412;49.892;14.490;2023-05-10T00:19:21;96798.00;;;8.75;66.87
78170;BME280;67412;49.892;14.490;2023-05-10T00:21:46;96793.81;;;8.71;66.97
78170;BME280;67412;49.892;14.490;2023-05-10T00:24:12;96789.59;;;8.67;67.31
78170;BME280;67412;49.892;14.490;2023-05-10T00:26:37;96789.75;;;8.56;67.27
78170;BME280;67412;49.892;14.490;2023-05-10T00:29:02;96792.31;;;8.58;67.48
78170;BME280;67412;49.892;14.490;2023-05-10T00:31:28;96787.94;;;8.63;67.69
78170;BME280;67412;49.892;14.490;2023-05-10T00:33:53;96790.66;;;8.54;67.80
78170;BME280;67412;49.892;14.490;2023-05-10T00:36:18;96790.63;;;8.55;67.71
78170;BME280;67412;49.892;14.490;2023-05-10T00:38:43;96783.91;;;8.50;67.38
78170;BME280;67412;49.892;14.490;2023-05-10T00:41:09;96790.84;;;8.40;68.26
78170;BME280;67412;49.892;14.490;2023-05-10T00:43:34;96785.81;;;8.36;68.28
78170;BME280;67412;49.892;14.490;2023-05-10T00:46:00;96783.44;;;8.20;68.86
78170;BME280;67412;49.892;14.490;2023-05-10T00:48:25;96785.28;;;8.08;69.28
78170;BME280;67412;49.892;14.490;2023-05-10T00:50:50;96785.28;;;8.09;69.25
78170;BME280;67412;49.892;14.490;2023-05-10T00:53:16;96774.06;;;8.19;69.01
78170;BME280;67412;49.892;14.490;2023-05-10T00:55:42;96780.22;;;8.05;69.61
78170;BME280;67412;49.892;14.490;2023-05-10T00:58:07;96768.44;;;7.92;69.38
78170;BME280;67412;49.892;14.490;2023-05-10T01:00:33;96772.84;;;7.82;70.26
78170;BME280;67412;49.892;14.490;2023-05-10T01:02:59;96772.22;;;7.63;70.83
78170;BME280;67412;49.892;14.490;2023-05-10T01:05:24;96771.50;;;7.52;71.18
78170;BME280;67412;49.892;14.490;2023-05-10T01:07:50;96770.69;;;7.47;71.41
78170;BME280;67412;49.892;14.490;2023-05-10T01:10:16;96766.53;;;7.36;71.79
78170;BME280;67412;49.892;14.490;2023-05-10T01:12:45;96766.53;;;7.36;71.72
78170;BME280;67412;49.892;14.490;2023-05-10T01:15:11;96765.78;;;7.29;72.10
78170;BME280;67412;49.892;14.490;2023-05-10T01:17:39;96764.09;;;7.25;71.86
78170;BME280;67412;49.892;14.490;2023-05-10T01:20:09;96768.31;;;7.27;71.96
78170;BME280;67412;49.892;14.490;2023-05-10T01:34:23;96758.00;;;7.40;72.13
78170;BME280;67412;49.892;14.490;2023-05-10T01:37:02;96756.25;;;7.45;72.08
78170;BME280;67412;49.892;14.490;2023-05-10T01:39:50;96763.00;;;7.47;72.13
78170;BME280;67412;49.892;14.490;2023-05-10T01:42:24;96758.75;;;7.46;71.81
78170;BME280;67412;49.892;14.490;2023-05-10T01:47:36;96763.09;;;7.40;71.78
78170;BME280;67412;49.892;14.490;2023-05-10T01:50:04;96757.09;;;7.45;71.62
78170;BME280;67412;49.892;14.490;2023-05-10T01:52:33;96761.22;;;7.54;71.42
78170;BME280;67412;49.892;14.490;2023-05-10T01:55:05;96755.25;;;7.56;71.34
78170;BME280;67412;49.892;14.490;2023-05-10T01:57:33;96760.28;;;7.64;71.04
78170;BME280;67412;49.892;14.490;2023-05-10T02:00:00;96755.13;;;7.68;70.71
78170;BME280;67412;49.892;14.490;2023-05-10T02:02:30;96755.97;;;7.67;70.59
78170;BME280;67412;49.892;14.490;2023-05-10T02:04:58;96745.75;;;7.67;70.53
78170;BME280;67412;49.892;14.490;2023-05-10T02:07:26;96746.75;;;7.56;70.71
78170;BME280;67412;49.892;14.490;2023-05-10T02:09:54;96754.50;;;7.50;71.02
78170;BME280;67412;49.892;14.490;2023-05-10T02:12:22;96753.63;;;7.49;71.37
78170;BME280;67412;49.892;14.490;2023-05-10T02:14:50;96760.41;;;7.53;70.97
78170;BME280;67412;49.892;14.490;2023-05-10T02:17:17;96757.78;;;7.59;70.43
78170;BME280;67412;49.892;14.490;2023-05-10T02:19:44;96757.72;;;7.64;70.82
78170;BME280;67412;49.892;14.490;2023-05-10T02:22:11;96751.09;;;7.49;70.76
78170;BME280;67412;49.892;14.490;2023-05-10T02:24:37;96755.47;;;7.38;70.97
78170;BME280;67412;49.892;14.490;2023-05-10T02:27:04;96751.19;;;7.39;71.12
78170;BME280;67412;49.892;14.490;2023-05-10T02:29:31;96750.31;;;7.41;71.05
78170;BME280;67412;49.892;14.490;2023-05-10T02:31:58;96751.22;;;7.37;71.48
78170;BME280;67412;49.892;14.490;2023-05-10T02:34:26;96749.56;;;7.33;71.45
78170;BME280;67412;49.892;14.490;2023-05-10T02:36:53;96750.47;;;7.24;71.44
78170;BME280;67412;49.892;14.490;2023-05-10T02:39:19;96746.16;;;7.33;71.35
78170;BME280;67412;49.892;14.490;2023-05-10T02:41:46;96749.63;;;7.27;71.35
78170;BME280;67412;49.892;14.490;2023-05-10T02:44:15;96750.53;;;7.23;71.46
78170;BME280;67412;49.892;14.490;2023-05-10T02:46:41;96740.34;;;7.18;71.44
78170;BME280;67412;49.892;14.490;2023-05-10T02:49:07;96753.16;;;7.12;71.59
78170;BME280;67412;49.892;14.490;2023-05-10T02:51:34;96749.63;;;7.25;71.50
78170;BME280;67412;49.892;14.490;2023-05-10T02:54:06;96748.63;;;7.40;71.30
78170;BME280;67412;49.892;14.490;2023-05-10T02:56:36;96745.03;;;7.56;70.83
78170;BME280;67412;49.892;14.490;2023-05-10T02:59:04;96737.41;;;7.53;70.89
78170;BME280;67412;49.892;14.490;2023-05-10T03:01:30;96745.00;;;7.59;70.48
78170;BME280;67412;49.892;14.490;2023-05-10T03:03:55;96738.25;;;7.52;70.95
78170;BME280;67412;49.892;14.490;2023-05-10T03:06:20;96731.63;;;7.36;71.35
78170;BME280;67412;49.892;14.490;2023-05-10T03:08:46;96731.75;;;7.27;71.60
78170;BME280;67412;49.892;14.490;2023-05-10T03:11:28;96730.22;;;7.11;72.18
78170;BME280;67412;49.892;14.490;2023-05-10T03:16:42;96731.25;;;6.90;72.99
78170;BME280;67412;49.892;14.490;2023-05-10T03:21:37;96719.47;;;6.78;72.93
78170;BME280;67412;49.892;14.490;2023-05-10T03:24:07;96731.41;;;6.72;73.31
78170;BME280;67412;49.892;14.490;2023-05-10T03:26:33;96732.25;;;6.74;73.04
78170;BME280;67412;49.892;14.490;2023-05-10T03:28:59;96734.84;;;6.71;73.49
78170;BME280;67412;49.892;14.490;2023-05-10T03:31:25;96740.75;;;6.77;73.70
78170;BME280;67412;49.892;14.490;2023-05-10T03:33:51;96737.91;;;7.08;73.03
78170;BME280;67412;49.892;14.490;2023-05-10T03:36:17;96742.97;;;7.11;72.56
78170;BME280;67412;49.892;14.490;2023-05-10T03:38:43;96741.19;;;7.17;72.21
78170;BME280;67412;49.892;14.490;2023-05-10T03:41:08;96749.56;;;7.35;71.99
78170;BME280;67412;49.892;14.490;2023-05-10T03:43:34;96745.97;;;7.48;71.42
78170;BME280;67412;49.892;14.490;2023-05-10T03:46:04;96744.03;;;7.68;70.73
78170;BME280;67412;49.892;14.490;2023-05-10T03:48:30;96749.91;;;7.76;70.36
78170;BME280;67412;49.892;14.490;2023-05-10T03:50:56;96753.94;;;7.92;69.93
78170;BME280;67412;49.892;14.490;2023-05-10T03:53:22;96756.50;;;7.94;69.96
78170;BME280;67412;49.892;14.490;2023-05-10T03:55:48;96748.13;;;7.83;70.63
78170;BME280;67412;49.892;14.490;2023-05-10T03:58:13;96751.59;;;7.77;70.65
78170;BME280;67412;49.892;14.490;2023-05-10T04:00:38;96749.06;;;7.75;70.77
78170;BME280;67412;49.892;14.490;2023-05-10T04:03:09;96756.69;;;7.77;70.42
78170;BME280;67412;49.892;14.490;2023-05-10T04:05:34;96751.63;;;7.75;70.61
78170;BME280;67412;49.892;14.490;2023-05-10T04:08:00;96759.34;;;7.71;70.98
78170;BME280;67412;49.892;14.490;2023-05-10T04:10:25;96756.75;;;7.75;70.83
78170;BME280;67412;49.892;14.490;2023-05-10T04:12:50;96748.13;;;7.83;71.14
78170;BME280;67412;49.892;14.490;2023-05-10T04:15:16;96755.75;;;7.87;70.87
78170;BME280;67412;49.892;14.490;2023-05-10T04:17:41;96755.66;;;7.92;70.92
78170;BME280;67412;49.892;14.490;2023-05-10T04:20:07;96746.97;;;8.03;70.20
78170;BME280;67412;49.892;14.490;2023-05-10T04:22:32;96754.59;;;8.08;69.81
78170;BME280;67412;49.892;14.490;2023-05-10T04:24:58;96746.03;;;8.12;70.43
78170;BME280;67412;49.892;14.490;2023-05-10T04:27:23;96740.69;;;8.27;70.29
78170;BME280;67412;49.892;14.490;2023-05-10T04:29:48;96735.53;;;8.32;70.45
78170;BME280;67412;49.892;14.490;2023-05-10T04:32:13;96743.81;;;8.47;70.15
78170;BME280;67412;49.892;14.490;2023-05-10T04:34:41;96745.44;;;8.54;69.80
78170;BME280;67412;49.892;14.490;2023-05-10T04:37:06;96740.22;;;8.59;69.83
78170;BME280;67412;49.892;14.490;2023-05-10T04:39:32;96739.97;;;8.74;70.47
78170;BME280;67412;49.892;14.490;2023-05-10T04:41:58;96739.75;;;8.88;70.12
78170;BME280;67412;49.892;14.490;2023-05-10T04:44:23;96736.09;;;9.01;69.54
78170;BME280;67412;49.892;14.490;2023-05-10T04:46:48;96737.66;;;9.11;70.81
78170;BME280;67412;49.892;14.490;2023-05-10T04:49:13;96738.88;;;9.36;68.50
78170;BME280;67412;49.892;14.490;2023-05-10T04:51:39;96736.13;;;9.47;68.57
78170;BME280;67412;49.892;14.490;2023-05-10T04:54:04;96731.63;;;9.58;68.68
78170;BME280;67412;49.892;14.490;2023-05-10T04:56:30;96726.28;;;9.68;68.56
78170;BME280;67412;49.892;14.490;2023-05-10T04:58:55;96727.66;;;9.85;67.39
78170;BME280;67412;49.892;14.490;2023-05-10T05:01:20;96725.63;;;10.00;66.72
78170;BME280;67412;49.892;14.490;2023-05-10T05:03:46;96724.69;;;10.04;66.40
78170;BME280;67412;49.892;14.490;2023-05-10T05:06:11;96727.72;;;10.23;65.72
78170;BME280;67412;49.892;14.490;2023-05-10T05:08:36;96734.47;;;10.27;65.46
78170;BME280;67412;49.892;14.490;2023-05-10T05:11:02;96728.16;;;10.42;64.91
78170;BME280;67412;49.892;14.490;2023-05-10T05:13:27;96734.78;;;10.50;64.73
78170;BME280;67412;49.892;14.490;2023-05-10T05:15:52;96738.16;;;10.52;64.69
78170;BME280;67412;49.892;14.490;2023-05-10T05:18:18;96734.56;;;10.59;64.45
78170;BME280;67412;49.892;14.490;2023-05-10T05:20:43;96731.91;;;10.64;64.32
78170;BME280;67412;49.892;14.490;2023-05-10T05:23:09;96733.44;;;10.71;64.77
78170;BME280;67412;49.892;14.490;2023-05-10T05:25:34;96741.75;;;10.81;63.79
78170;BME280;67412;49.892;14.490;2023-05-10T05:28:00;96739.81;;;10.90;63.37
78170;BME280;67412;49.892;14.490;2023-05-10T05:30:26;96737.16;;;10.93;64.41
78170;BME280;67412;49.892;14.490;2023-05-10T05:32:52;96729.22;;;11.02;62.91
78170;BME280;67412;49.892;14.490;2023-05-10T05:35:17;96733.19;;;11.14;63.68
78170;BME280;67412;49.892;14.490;2023-05-10T05:37:42;96738.88;;;11.27;62.79
78170;BME280;67412;49.892;14.490;2023-05-10T05:40:08;96738.75;;;11.31;61.86
78170;BME280;67412;49.892;14.490;2023-05-10T05:42:37;96732.31;;;11.47;63.67
78170;BME280;67412;49.892;14.490;2023-05-10T05:45:03;96722.81;;;11.51;61.48
78170;BME280;67412;49.892;14.490;2023-05-10T05:47:29;96722.72;;;11.54;61.26
78170;BME280;67412;49.892;14.490;2023-05-10T05:49:54;96728.63;;;11.56;63.07
78170;BME280;67412;49.892;14.490;2023-05-10T05:52:20;96729.47;;;11.58;61.70
78170;BME280;67412;49.892;14.490;2023-05-10T05:54:46;96733.44;;;11.70;62.05
78170;BME280;67412;49.892;14.490;2023-05-10T05:57:11;96734.91;;;11.78;63.40
78170;BME280;67412;49.892;14.490;2023-05-10T05:59:37;96743.13;;;11.91;62.18
78170;BME280;67412;49.892;14.490;2023-05-10T06:02:07;96739.41;;;12.01;61.45
78170;BME280;67412;49.892;14.490;2023-05-10T06:04:32;96738.41;;;12.05;61.79
78170;BME280;67412;49.892;14.490;2023-05-10T06:06:57;96741.63;;;12.13;62.32
78170;BME280;67412;49.892;14.490;2023-05-10T06:09:23;96742.25;;;12.21;62.72
78170;BME280;67412;49.892;14.490;2023-05-10T06:11:49;96748.16;;;12.25;61.62
78170;BME280;67412;49.892;14.490;2023-05-10T06:14:15;96744.38;;;12.35;62.13
78170;BME280;67412;49.892;14.490;2023-05-10T06:16:40;96738.22;;;12.40;61.11
78170;BME280;67412;49.892;14.490;2023-05-10T06:19:05;96741.31;;;12.51;60.28
78170;BME280;67412;49.892;14.490;2023-05-10T06:21:31;96746.41;;;12.53;60.71
78170;BME280;67412;49.892;14.490;2023-05-10T06:23:57;96740.88;;;12.65;61.06
78170;BME280;67412;49.892;14.490;2023-05-10T06:26:22;96729.44;;;12.74;61.69
78170;BME280;67412;49.892;14.490;2023-05-10T06:28:47;96741.13;;;12.84;60.26
78170;BME280;67412;49.892;14.490;2023-05-10T06:31:13;96743.69;;;12.84;60.19
78170;BME280;67412;49.892;14.490;2023-05-10T06:33:38;96746.66;;;12.98;60.63
78170;BME280;67412;49.892;14.490;2023-05-10T06:36:03;96742.94;;;13.06;59.36
78170;BME280;67412;49.892;14.490;2023-05-10T06:38:29;96740.94;;;13.16;59.89
78170;BME280;67412;49.892;14.490;2023-05-10T06:40:54;96742.16;;;13.31;59.00
78170;BME280;67412;49.892;14.490;2023-05-10T06:43:19;96743.78;;;13.33;57.39
78170;BME280;67412;49.892;14.490;2023-05-10T06:45:45;96736.63;;;13.41;57.42
78170;BME280;67412;49.892;14.490;2023-05-10T06:48:10;96746.50;;;13.53;56.48
78170;BME280;67412;49.892;14.490;2023-05-10T06:50:36;96736.88;;;13.59;57.24
78170;BME280;67412;49.892;14.490;2023-05-10T06:53:01;96742.50;;;13.70;57.91
78170;BME280;67412;49.892;14.490;2023-05-10T06:55:29;96744.53;;;13.85;56.09
78170;BME280;67412;49.892;14.490;2023-05-10T06:57:55;96741.00;;;13.87;57.04
78170;BME280;67412;49.892;14.490;2023-05-10T07:00:20;96739.38;;;13.85;56.28
78170;BME280;67412;49.892;14.490;2023-05-10T07:02:46;96734.03;;;13.89;55.75
78170;BME280;67412;49.892;14.490;2023-05-10T07:05:12;96738.66;;;14.04;56.99
78170;BME280;67412;49.892;14.490;2023-05-10T07:07:37;96742.50;;;14.16;55.58
78170;BME280;67412;49.892;14.490;2023-05-10T07:10:03;96735.97;;;14.29;55.88
78170;BME280;67412;49.892;14.490;2023-05-10T07:12:28;96741.47;;;14.43;56.63
78170;BME280;67412;49.892;14.490;2023-05-10T07:14:54;96743.53;;;14.35;54.23
78170;BME280;67412;49.892;14.490;2023-05-10T07:17:19;96742.16;;;14.25;56.24
78170;BME280;67412;49.892;14.490;2023-05-10T07:19:44;96739.81;;;14.42;56.52
78170;BME280;67412;49.892;14.490;2023-05-10T07:22:10;96739.88;;;14.63;56.83
78170;BME280;67412;49.892;14.490;2023-05-10T07:24:35;96742.09;;;14.72;55.51
78170;BME280;67412;49.892;14.490;2023-05-10T07:27:00;96745.75;;;14.88;55.73
78170;BME280;67412;49.892;14.490;2023-05-10T07:29:26;96743.19;;;14.88;55.32
78170;BME280;67412;49.892;14.490;2023-05-10T07:31:51;96743.22;;;14.86;53.90
78170;BME280;67412;49.892;14.490;2023-05-10T07:34:17;96749.78;;;14.95;53.51
78170;BME280;67412;49.892;14.490;2023-05-10T07:36:42;96745.84;;;15.07;53.37
78170;BME280;67412;49.892;14.490;2023-05-10T07:39:07;96752.63;;;15.09;54.17
78170;BME280;67412;49.892;14.490;2023-05-10T07:41:33;96743.72;;;15.16;54.04
78170;BME280;67412;49.892;14.490;2023-05-10T07:43:58;96746.84;;;15.44;54.46
78170;BME280;67412;49.892;14.490;2023-05-10T07:46:23;96743.13;;;15.52;53.41
78170;BME280;67412;49.892;14.490;2023-05-10T07:48:49;96743.53;;;15.41;54.15
78170;BME280;67412;49.892;14.490;2023-05-10T07:51:14;96744.44;;;15.40;53.15
78170;BME280;67412;49.892;14.490;2023-05-10T07:53:39;96743.50;;;15.63;54.47
78170;BME280;67412;49.892;14.490;2023-05-10T07:56:21;96734.94;;;15.61;53.00
78170;BME280;67412;49.892;14.490;2023-05-10T07:58:47;96746.00;;;15.44;54.59
78170;BME280;67412;49.892;14.490;2023-05-10T08:01:13;96743.44;;;15.83;53.77
78170;BME280;67412;49.892;14.490;2023-05-10T08:03:38;96738.16;;;16.05;52.26
78170;BME280;67412;49.892;14.490;2023-05-10T08:06:04;96746.72;;;16.07;51.44
78170;BME280;67412;49.892;14.490;2023-05-10T08:08:29;96737.69;;;16.15;52.22
78170;BME280;67412;49.892;14.490;2023-05-10T08:10:54;96742.88;;;16.15;52.24
78170;BME280;67412;49.892;14.490;2023-05-10T08:13:20;96751.34;;;16.00;52.28
78170;BME280;67412;49.892;14.490;2023-05-10T08:15:46;96742.41;;;15.87;52.99
78170;BME280;67412;49.892;14.490;2023-05-10T08:18:11;96740.75;;;16.23;53.51
78170;BME280;67412;49.892;14.490;2023-05-10T08:20:37;96741.88;;;16.55;52.76
78170;BME280;67412;49.892;14.490;2023-05-10T08:23:02;96746.19;;;16.55;51.23
78170;BME280;67412;49.892;14.490;2023-05-10T08:25:27;96741.66;;;16.41;52.34
78170;BME280;67412;49.892;14.490;2023-05-10T08:27:53;96745.16;;;16.40;51.72
78170;BME280;67412;49.892;14.490;2023-05-10T08:30:18;96742.28;;;16.65;50.49
78170;BME280;67412;49.892;14.490;2023-05-10T08:32:43;96744.78;;;16.85;50.94
78170;BME280;67412;49.892;14.490;2023-05-10T08:35:09;96746.38;;;16.87;50.55
78170;BME280;67412;49.892;14.490;2023-05-10T08:37:34;96746.78;;;17.14;50.14
78170;BME280;67412;49.892;14.490;2023-05-10T08:39:59;96744.81;;;17.19;47.94
78170;BME280;67412;49.892;14.490;2023-05-10T08:42:25;96759.91;;;17.28;49.05
78170;BME280;67412;49.892;14.490;2023-05-10T08:44:54;96750.31;;;17.30;49.37
78170;BME280;67412;49.892;14.490;2023-05-10T08:47:20;96748.03;;;17.59;48.13
78170;BME280;67412;49.892;14.490;2023-05-10T08:49:47;96752.00;;;17.66;47.77
78170;BME280;67412;49.892;14.490;2023-05-10T08:52:17;96750.63;;;17.76;47.09
78170;BME280;67412;49.892;14.490;2023-05-10T08:54:42;96746.28;;;17.76;48.91
78170;BME280;67412;49.892;14.490;2023-05-10T08:57:08;96748.69;;;17.79;48.26
78170;BME280;67412;49.892;14.490;2023-05-10T08:59:34;96750.28;;;17.99;47.53
78170;BME280;67412;49.892;14.490;2023-05-10T09:02:00;96742.47;;;17.99;48.09
78170;BME280;67412;49.892;14.490;2023-05-10T09:04:27;96743.84;;;17.89;47.84
78170;BME280;67412;49.892;14.490;2023-05-10T09:06:53;96755.47;;;17.99;46.75
78170;BME280;67412;49.892;14.490;2023-05-10T09:09:19;96761.78;;;17.61;45.93
78170;BME280;67412;49.892;14.490;2023-05-10T09:11:44;96758.25;;;17.79;49.27
78170;BME280;67412;49.892;14.490;2023-05-10T09:14:11;96762.53;;;17.46;49.03
78170;BME280;67412;49.892;14.490;2023-05-10T09:16:37;96754.00;;;17.94;47.70
78170;BME280;67412;49.892;14.490;2023-05-10T09:19:02;96752.72;;;18.18;48.13
78170;BME280;67412;49.892;14.490;2023-05-10T09:21:28;96745.06;;;17.99;46.93
78170;BME280;67412;49.892;14.490;2023-05-10T09:23:53;96748.19;;;17.73;48.31
78170;BME280;67412;49.892;14.490;2023-05-10T09:26:23;96747.63;;;17.66;47.79
78170;BME280;67412;49.892;14.490;2023-05-10T09:28:54;96755.88;;;18.07;47.95
78170;BME280;67412;49.892;14.490;2023-05-10T09:31:19;96755.75;;;18.42;47.52
78170;BME280;67412;49.892;14.490;2023-05-10T09:33:46;96750.00;;;18.68;47.11
78170;BME280;67412;49.892;14.490;2023-05-10T09:36:12;96754.69;;;18.93;46.91
78170;BME280;67412;49.892;14.490;2023-05-10T09:38:48;96752.66;;;18.98;45.52
78170;BME280;67412;49.892;14.490;2023-05-10T09:41:23;96757.84;;;18.98;45.63
78170;BME280;67412;49.892;14.490;2023-05-10T09:43:49;96753.09;;;18.90;44.50
78170;BME280;67412;49.892;14.490;2023-05-10T09:46:15;96750.03;;;19.13;43.08
78170;BME280;67412;49.892;14.490;2023-05-10T09:48:45;96742.66;;;19.06;44.44
78170;BME280;67412;49.892;14.490;2023-05-10T09:51:21;96758.13;;;18.93;45.25
78170;BME280;67412;49.892;14.490;2023-05-10T09:53:47;96751.81;;;18.97;44.23
78170;BME280;67412;49.892;14.490;2023-05-10T09:56:32;96757.66;;;19.16;45.29
78170;BME280;67412;49.892;14.490;2023-05-10T09:59:04;96755.38;;;19.26;44.20
78170;BME280;67412;49.892;14.490;2023-05-10T10:01:30;96742.56;;;19.67;43.43
78170;BME280;67412;49.892;14.490;2023-05-10T10:03:56;96761.13;;;19.01;45.13
78170;BME280;67412;49.892;14.490;2023-05-10T10:06:22;96757.16;;;19.40;43.03
78170;BME280;67412;49.892;14.490;2023-05-10T10:08:48;96751.50;;;19.77;44.87
78170;BME280;67412;49.892;14.490;2023-05-10T10:11:14;96759.44;;;19.90;44.92
78170;BME280;67412;49.892;14.490;2023-05-10T10:13:39;96746.75;;;20.26;42.43
78170;BME280;67412;49.892;14.490;2023-05-10T10:16:05;96756.56;;;19.94;43.71
78170;BME280;67412;49.892;14.490;2023-05-10T10:18:31;96755.41;;;19.70;43.38
78170;BME280;67412;49.892;14.490;2023-05-10T10:20:57;96754.09;;;19.77;44.04
78170;BME280;67412;49.892;14.490;2023-05-10T10:23:23;96748.25;;;19.88;44.52
78170;BME280;67412;49.892;14.490;2023-05-10T10:25:49;96761.31;;;20.02;44.64
78170;BME280;67412;49.892;14.490;2023-05-10T10:28:25;96751.13;;;20.40;42.99
78170;BME280;67412;49.892;14.490;2023-05-10T10:30:52;96744.31;;;20.51;41.68
78170;BME280;67412;49.892;14.490;2023-05-10T10:33:40;96740.84;;;20.65;42.82
78170;BME280;67412;49.892;14.490;2023-05-10T10:36:15;96747.22;;;20.18;42.72
78170;BME280;67412;49.892;14.490;2023-05-10T10:52:27;96734.66;;;21.46;39.98
78170;BME280;67412;49.892;14.490;2023-05-10T10:57:54;96732.78;;;21.09;39.52
78170;BME280;67412;49.892;14.490;2023-05-10T11:00:45;96732.66;;;21.37;40.18
78170;BME280;67412;49.892;14.490;2023-05-10T11:03:14;96727.69;;;21.59;40.98
78170;BME280;67412;49.892;14.490;2023-05-10T11:05:47;96722.16;;;21.89;39.23
78170;BME280;67412;49.892;14.490;2023-05-10T11:08:26;96720.47;;;21.88;38.58
78170;BME280;67412;49.892;14.490;2023-05-10T11:13:46;96715.94;;;21.52;39.32
78170;BME280;67412;49.892;14.490;2023-05-10T11:16:21;96719.69;;;21.48;40.91
78170;BME280;67412;49.892;14.490;2023-05-10T11:19:12;96724.94;;;21.09;40.30
78170;BME280;67412;49.892;14.490;2023-05-10T11:21:51;96726.22;;;20.62;41.97
78170;BME280;67412;49.892;14.490;2023-05-10T11:24:36;96719.91;;;21.45;39.82
78170;BME280;67412;49.892;14.490;2023-05-10T11:27:01;96722.38;;;21.99;39.01
78170;BME280;67412;49.892;14.490;2023-05-10T11:29:27;96725.69;;;22.13;40.31
78170;BME280;67412;49.892;14.490;2023-05-10T11:31:52;96723.00;;;22.02;39.87
78170;BME280;67412;49.892;14.490;2023-05-10T11:34:25;96726.00;;;22.34;39.36
78170;BME280;67412;49.892;14.490;2023-05-10T11:36:52;96712.91;;;22.34;41.74
78170;BME280;67412;49.892;14.490;2023-05-10T11:39:19;96720.97;;;21.68;37.43
78170;BME280;67412;49.892;14.490;2023-05-10T11:41:48;96728.22;;;22.02;41.19
78170;BME280;67412;49.892;14.490;2023-05-10T11:44:13;96725.88;;;21.60;38.61
78170;BME280;67412;49.892;14.490;2023-05-10T11:46:40;96723.81;;;20.86;40.96
78170;BME280;67412;49.892;14.490;2023-05-10T11:49:06;96723.84;;;20.45;41.11
78170;BME280;67412;49.892;14.490;2023-05-10T11:51:36;96729.00;;;21.40;39.29
78170;BME280;67412;49.892;14.490;2023-05-10T11:54:05;96724.44;;;22.06;40.87
78170;BME280;67412;49.892;14.490;2023-05-10T11:56:32;96731.78;;;22.50;41.01
78170;BME280;67412;49.892;14.490;2023-05-10T11:58:58;96733.84;;;22.34;39.45
78170;BME280;67412;49.892;14.490;2023-05-10T12:01:24;96731.28;;;21.96;39.86
78170;BME280;67412;49.892;14.490;2023-05-10T12:03:51;96732.69;;;21.88;38.33
78170;BME280;67412;49.892;14.490;2023-05-10T12:06:18;96732.59;;;21.89;40.67
78170;BME280;67412;49.892;14.490;2023-05-10T12:08:46;96741.56;;;21.47;40.46
78170;BME280;67412;49.892;14.490;2023-05-10T12:11:12;96743.13;;;21.50;40.48
78170;BME280;67412;49.892;14.490;2023-05-10T12:13:42;96739.47;;;21.40;42.08
78170;BME280;67412;49.892;14.490;2023-05-10T12:16:19;96743.19;;;20.55;42.43
78170;BME280;67412;49.892;14.490;2023-05-10T12:18:45;96746.84;;;20.53;43.11
78170;BME280;67412;49.892;14.490;2023-05-10T12:21:13;96743.59;;;20.21;43.27
78170;BME280;67412;49.892;14.490;2023-05-10T12:23:40;96752.50;;;20.59;43.33
78170;BME280;67412;49.892;14.490;2023-05-10T12:26:08;96754.69;;;20.53;43.22
78170;BME280;67412;49.892;14.490;2023-05-10T12:28:34;96748.34;;;20.57;44.17
78170;BME280;67412;49.892;14.490;2023-05-10T12:31:01;96750.09;;;20.56;43.02
78170;BME280;67412;49.892;14.490;2023-05-10T12:33:35;96746.97;;;20.78;43.84
78170;BME280;67412;49.892;14.490;2023-05-10T12:36:02;96746.94;;;20.23;43.30
78170;BME280;67412;49.892;14.490;2023-05-10T12:38:31;96743.19;;;20.69;42.49
78170;BME280;67412;49.892;14.490;2023-05-10T12:41:01;96739.03;;;21.06;42.19
78170;BME280;67412;49.892;14.490;2023-05-10T12:43:28;96734.13;;;20.34;42.88
78170;BME280;67412;49.892;14.490;2023-05-10T12:45:54;96742.34;;;20.55;43.28
78170;BME280;67412;49.892;14.490;2023-05-10T12:48:19;96745.44;;;20.61;42.96
78170;BME280;67412;49.892;14.490;2023-05-10T12:50:46;96744.31;;;20.51;43.42
78170;BME280;67412;49.892;14.490;2023-05-10T12:53:13;96750.50;;;20.77;42.80
78170;BME280;67412;49.892;14.490;2023-05-10T12:55:40;96749.72;;;20.89;43.25
78170;BME280;67412;49.892;14.490;2023-05-10T12:58:05;96749.53;;;20.92;42.42
78170;BME280;67412;49.892;14.490;2023-05-10T13:00:31;96755.00;;;21.02;42.07
78170;BME280;67412;49.892;14.490;2023-05-10T13:02:56;96748.00;;;20.76;41.50
78170;BME280;67412;49.892;14.490;2023-05-10T13:05:21;96754.16;;;20.74;42.26
78170;BME280;67412;49.892;14.490;2023-05-10T13:07:46;96750.63;;;20.76;43.33
78170;BME280;67412;49.892;14.490;2023-05-10T13:10:12;96757.19;;;20.81;44.23
78170;BME280;67412;49.892;14.490;2023-05-10T13:12:37;96755.44;;;20.41;42.92
78170;BME280;67412;49.892;14.490;2023-05-10T13:15:03;96752.63;;;20.44;42.76
78170;BME280;67412;49.892;14.490;2023-05-10T13:17:28;96748.72;;;20.78;43.39
78170;BME280;67412;49.892;14.490;2023-05-10T13:19:54;96751.47;;;20.76;42.50
78170;BME280;67412;49.892;14.490;2023-05-10T13:22:19;96750.31;;;20.80;44.72
78170;BME280;67412;49.892;14.490;2023-05-10T13:24:45;96757.41;;;20.78;43.51
78170;BME280;67412;49.892;14.490;2023-05-10T13:27:10;96743.56;;;20.63;41.69
78170;BME280;67412;49.892;14.490;2023-05-10T13:29:35;96747.03;;;20.50;42.71
78170;BME280;67412;49.892;14.490;2023-05-10T13:32:00;96752.06;;;20.53;43.22